createdAt,value
2022-12-01T00:01:51.892Z,6.76
2022-12-01T00:04:20.495Z,6.84
2022-12-01T00:06:50.007Z,6.85
2022-12-01T00:09:40.515Z,6.81
2022-12-01T00:12:08.705Z,6.76
2022-12-01T00:14:36.902Z,6.79
2022-12-01T00:17:09.848Z,6.78
2022-12-01T00:19:38.353Z,6.79
2022-12-01T00:22:06.623Z,6.84
2022-12-01T00:24:35.806Z,6.89
2022-12-01T00:27:06.101Z,6.90
2022-12-01T00:29:34.708Z,6.94
2022-12-01T00:32:08.802Z,6.98
2022-12-01T00:34:38.100Z,6.98
2022-12-01T00:37:08.357Z,7.02
2022-12-01T00:39:36.653Z,7.02
2022-12-01T00:42:08.674Z,7.04
2022-12-01T00:44:45.456Z,7.04
2022-12-01T00:47:15.367Z,6.99
2022-12-01T00:49:45.840Z,6.99
2022-12-01T00:52:14.879Z,6.92
2022-12-01T00:54:43.154Z,6.86
2022-12-01T00:57:15.086Z,6.85
2022-12-01T00:59:43.678Z,6.91
2022-12-01T01:02:15.024Z,6.95
2022-12-01T01:04:43.151Z,6.92
2022-12-01T01:07:11.401Z,6.90
2022-12-01T01:09:39.827Z,6.91
2022-12-01T01:12:07.913Z,6.93
2022-12-01T01:14:36.849Z,6.93
2022-12-01T01:17:04.955Z,6.93
2022-12-01T01:19:34.725Z,6.93
2022-12-01T01:22:07.656Z,6.97
2022-12-01T01:24:38.171Z,6.97
2022-12-01T01:27:07.045Z,6.96
2022-12-01T01:29:35.364Z,6.98
2022-12-01T01:32:04.206Z,6.95
2022-12-01T01:34:34.418Z,6.95
2022-12-01T01:37:03.929Z,6.96
2022-12-01T01:39:32.096Z,6.98
2022-12-01T01:42:00.187Z,6.95
2022-12-01T01:44:51.554Z,6.94
2022-12-01T01:47:24.467Z,6.93
2022-12-01T01:49:59.403Z,6.95
2022-12-01T01:52:29.122Z,6.96
2022-12-01T01:54:57.287Z,6.98
2022-12-01T01:57:33.140Z,6.97
2022-12-01T02:00:08.226Z,6.89
2022-12-01T02:02:46.869Z,6.90
2022-12-01T02:05:21.164Z,6.86
2022-12-01T02:07:51.587Z,6.77
2022-12-01T02:10:23.398Z,6.74
2022-12-01T02:13:10.274Z,6.80
2022-12-01T02:15:46.280Z,6.76
2022-12-01T02:18:28.320Z,6.77
2022-12-01T02:21:35.144Z,6.79
2022-12-01T02:24:35.745Z,6.77
2022-12-01T02:27:08.200Z,6.79
2022-12-01T02:30:03.398Z,6.70
2022-12-01T02:32:50.038Z,6.72
2022-12-01T02:35:28.786Z,6.72
2022-12-01T02:38:09.274Z,6.69
2022-12-01T02:40:45.216Z,6.71
2022-12-01T02:43:20.368Z,6.69
2022-12-01T02:45:54.032Z,6.70
2022-12-01T02:48:29.562Z,6.69
2022-12-01T02:51:06.962Z,6.62
2022-12-01T02:53:36.638Z,6.64
2022-12-01T02:56:11.976Z,6.65
2022-12-01T02:58:40.745Z,6.67
2022-12-01T03:01:26.018Z,6.66
2022-12-01T03:04:23.195Z,6.67
2022-12-01T03:07:00.246Z,6.67
2022-12-01T03:09:42.565Z,6.64
2022-12-01T03:12:21.117Z,6.64
2022-12-01T03:14:58.635Z,6.60
2022-12-01T03:17:36.160Z,6.61
2022-12-01T03:20:11.772Z,6.62
2022-12-01T03:22:45.620Z,6.59
2022-12-01T03:25:15.273Z,6.60
2022-12-01T03:28:19.183Z,6.58
2022-12-01T03:30:39.078Z,6.60
2022-12-01T03:33:11.799Z,6.59
2022-12-01T03:35:45.871Z,6.60
2022-12-01T03:38:22.305Z,6.59
2022-12-01T03:40:54.835Z,6.59
2022-12-01T03:43:29.353Z,6.59
2022-12-01T03:46:04.783Z,6.60
2022-12-01T03:48:33.706Z,6.60
2022-12-01T03:51:15.308Z,6.59
2022-12-01T03:53:52.687Z,6.58
2022-12-01T03:56:26.269Z,6.57
2022-12-01T03:58:58.117Z,6.60
2022-12-01T04:01:32.633Z,6.60
2022-12-01T04:04:09.032Z,6.58
2022-12-01T04:06:39.754Z,6.61
2022-12-01T04:09:09.335Z,6.62
2022-12-01T04:11:54.674Z,6.63
2022-12-01T04:14:26.451Z,6.60
2022-12-01T04:16:54.780Z,6.61
2022-12-01T04:19:23.074Z,6.57
2022-12-01T04:21:54.265Z,6.53
2022-12-01T04:24:22.910Z,6.53
2022-12-01T04:26:54.871Z,6.53
2022-12-01T04:29:23.311Z,6.54
2022-12-01T04:31:52.310Z,6.52
2022-12-01T04:34:21.474Z,6.51
2022-12-01T04:36:50.952Z,6.52
2022-12-01T04:39:20.831Z,6.55
2022-12-01T04:41:51.274Z,6.58
2022-12-01T04:44:19.552Z,6.55
2022-12-01T04:46:48.112Z,6.53
2022-12-01T04:49:16.642Z,6.54
2022-12-01T04:51:44.776Z,6.49
2022-12-01T04:54:13.154Z,6.39
2022-12-01T04:56:43.046Z,6.41
2022-12-01T04:59:12.252Z,6.45
2022-12-01T05:01:40.644Z,6.47
2022-12-01T05:04:12.887Z,6.50
2022-12-01T05:06:43.940Z,6.47
2022-12-01T05:09:17.977Z,6.47
2022-12-01T05:11:48.066Z,6.47
2022-12-01T05:14:16.139Z,6.48
2022-12-01T05:16:46.380Z,6.50
2022-12-01T05:19:32.504Z,6.50
2022-12-01T05:22:00.953Z,6.49
2022-12-01T05:24:28.881Z,6.49
2022-12-01T05:27:00.945Z,6.49
2022-12-01T05:29:34.134Z,6.52
2022-12-01T05:32:03.245Z,6.52
2022-12-01T05:34:35.362Z,6.53
2022-12-01T05:37:05.622Z,6.51
2022-12-01T05:39:34.929Z,6.48
2022-12-01T05:42:04.975Z,6.47
2022-12-01T05:44:33.027Z,6.48
2022-12-01T05:47:00.993Z,6.38
2022-12-01T05:49:29.509Z,6.35
2022-12-01T05:51:57.365Z,6.25
2022-12-01T05:54:26.668Z,6.27
2022-12-01T05:56:57.545Z,6.26
2022-12-01T05:59:27.728Z,6.26
2022-12-01T06:01:55.897Z,6.22
2022-12-01T06:04:24.403Z,6.24
2022-12-01T06:06:54.845Z,6.25
2022-12-01T06:09:23.435Z,6.24
2022-12-01T06:11:52.817Z,6.18
2022-12-01T06:14:22.639Z,6.15
2022-12-01T06:16:52.295Z,6.21
2022-12-01T06:19:20.678Z,6.21
2022-12-01T06:21:50.865Z,6.19
2022-12-01T06:24:19.054Z,6.21
2022-12-01T06:26:50.852Z,6.24
2022-12-01T06:29:18.778Z,6.19
2022-12-01T06:31:47.147Z,6.09
2022-12-01T06:34:16.942Z,6.12
2022-12-01T06:36:46.320Z,6.14
2022-12-01T06:39:16.479Z,6.12
2022-12-01T06:41:45.359Z,6.14
2022-12-01T06:44:16.335Z,6.12
2022-12-01T06:46:44.678Z,6.11
2022-12-01T06:49:13.505Z,6.09
2022-12-01T06:51:43.086Z,6.08
2022-12-01T06:54:12.987Z,6.10
2022-12-01T06:56:42.974Z,6.11
2022-12-01T06:59:11.276Z,6.10
2022-12-01T07:01:40.161Z,6.07
2022-12-01T07:04:10.926Z,6.10
2022-12-01T07:06:39.050Z,6.10
2022-12-01T07:09:08.713Z,6.10
2022-12-01T07:11:38.653Z,6.00
2022-12-01T07:14:06.703Z,6.03
2022-12-01T07:16:35.727Z,6.05
2022-12-01T07:19:05.504Z,5.96
2022-12-01T07:21:36.850Z,5.97
2022-12-01T07:24:07.291Z,6.02
2022-12-01T07:26:36.811Z,5.93
2022-12-01T07:29:08.733Z,5.95
2022-12-01T07:31:40.359Z,5.93
2022-12-01T07:34:14.637Z,5.98
2022-12-01T07:36:44.825Z,6.06
2022-12-01T07:39:13.511Z,6.05
2022-12-01T07:41:42.839Z,6.03
2022-12-01T07:44:11.824Z,6.09
2022-12-01T07:46:42.383Z,6.02
2022-12-01T07:49:15.467Z,6.03
2022-12-01T07:51:44.186Z,6.11
2022-12-01T07:54:14.284Z,6.03
2022-12-01T07:56:44.115Z,5.88
2022-12-01T07:59:13.530Z,5.98
2022-12-01T08:01:44.632Z,5.98
2022-12-01T08:04:13.955Z,5.95
2022-12-01T08:06:42.399Z,6.01
2022-12-01T08:09:12.869Z,5.96
2022-12-01T08:11:42.208Z,6.01
2022-12-01T08:14:12.192Z,5.97
2022-12-01T08:16:40.828Z,6.05
2022-12-01T08:19:11.658Z,6.06
2022-12-01T08:21:40.343Z,6.11
2022-12-01T08:24:09.646Z,6.15
2022-12-01T08:26:38.051Z,6.18
2022-12-01T08:29:06.443Z,6.22
2022-12-01T08:31:40.204Z,6.23
2022-12-01T08:34:08.897Z,6.27
2022-12-01T08:36:37.343Z,6.30
2022-12-01T08:39:05.593Z,6.35
2022-12-01T08:41:33.930Z,6.39
2022-12-01T08:44:02.046Z,6.45
2022-12-01T08:46:34.236Z,6.48
2022-12-01T08:49:05.216Z,6.48
2022-12-01T08:51:33.816Z,6.50
2022-12-01T08:54:02.359Z,6.54
2022-12-01T08:56:33.483Z,6.48
2022-12-01T08:59:03.793Z,6.56
2022-12-01T09:01:33.339Z,6.59
2022-12-01T09:04:08.523Z,6.63
2022-12-01T09:06:41.647Z,6.66
2022-12-01T09:09:11.285Z,6.67
2022-12-01T09:11:43.620Z,6.68
2022-12-01T09:14:13.315Z,6.74
2022-12-01T09:16:42.053Z,6.75
2022-12-01T09:19:13.335Z,6.78
2022-12-01T09:21:43.364Z,6.83
2022-12-01T09:24:14.296Z,6.86
2022-12-01T09:26:42.380Z,6.82
2022-12-01T09:29:13.522Z,6.83
2022-12-01T09:31:42.707Z,6.79
2022-12-01T09:34:16.276Z,6.75
2022-12-01T09:36:44.799Z,6.75
2022-12-01T09:39:14.681Z,6.74
2022-12-01T09:41:47.172Z,6.68
2022-12-01T09:44:30.349Z,6.80
2022-12-01T09:47:04.593Z,6.87
2022-12-01T09:49:45.563Z,6.96
2022-12-01T09:52:18.064Z,7.12
2022-12-01T09:54:49.813Z,7.33
2022-12-01T09:57:38.000Z,7.51
2022-12-01T10:00:13.319Z,7.75
2022-12-01T10:02:48.475Z,7.92
2022-12-01T10:05:22.197Z,8.09
2022-12-01T10:07:58.710Z,8.15
2022-12-01T10:10:32.519Z,8.03
2022-12-01T10:13:01.379Z,7.98
2022-12-01T10:15:42.175Z,7.88
2022-12-01T10:18:26.507Z,7.79
2022-12-01T10:21:11.019Z,7.77
2022-12-01T10:23:52.839Z,7.76
2022-12-01T10:26:28.782Z,7.76
2022-12-01T10:29:11.860Z,7.73
2022-12-01T10:32:03.241Z,7.73
2022-12-01T10:34:35.369Z,7.80
2022-12-01T10:37:05.416Z,7.82
2022-12-01T10:39:37.790Z,7.87
2022-12-01T10:42:14.927Z,7.90
2022-12-01T10:44:44.340Z,7.88
2022-12-01T10:47:19.456Z,7.96
2022-12-01T10:49:48.482Z,7.93
2022-12-01T10:52:35.447Z,7.91
2022-12-01T10:55:07.722Z,7.94
2022-12-01T10:57:37.576Z,7.92
2022-12-01T11:00:09.268Z,7.95
2022-12-01T11:02:38.480Z,8.02
2022-12-01T11:05:23.391Z,8.05
2022-12-01T11:07:56.096Z,8.02
2022-12-01T11:10:27.261Z,8.09
2022-12-01T11:12:58.596Z,8.12
2022-12-01T11:15:34.546Z,8.02
2022-12-01T11:18:07.977Z,8.07
2022-12-01T11:20:37.802Z,8.17
2022-12-01T11:23:28.739Z,8.30
2022-12-01T11:26:04.338Z,8.34
2022-12-01T11:28:36.525Z,8.40
2022-12-01T11:31:07.473Z,8.46
2022-12-01T11:33:51.440Z,8.46
2022-12-01T11:36:33.128Z,8.51
2022-12-01T11:39:03.782Z,8.49
2022-12-01T11:41:37.809Z,8.54
2022-12-01T11:44:43.027Z,8.61
2022-12-01T11:47:22.545Z,8.60
2022-12-01T11:50:04.527Z,8.60
2022-12-01T11:52:36.443Z,8.57
2022-12-01T11:55:22.816Z,8.52
2022-12-01T11:57:55.990Z,8.54
2022-12-01T12:00:27.324Z,8.52
2022-12-01T12:03:10.022Z,8.56
2022-12-01T12:06:17.862Z,8.59
2022-12-01T12:09:05.020Z,8.60
2022-12-01T12:11:43.744Z,8.68
2022-12-01T12:14:24.586Z,8.75
2022-12-01T12:17:09.891Z,8.81
2022-12-01T12:20:12.395Z,8.88
2022-12-01T12:22:55.251Z,9.14
2022-12-01T12:25:31.504Z,9.37
2022-12-01T12:28:19.764Z,9.51
2022-12-01T12:30:56.099Z,9.48
2022-12-01T12:33:41.229Z,9.47
2022-12-01T12:36:18.776Z,9.51
2022-12-01T12:39:04.374Z,9.43
2022-12-01T12:41:40.654Z,9.48
2022-12-01T12:44:37.307Z,9.60
2022-12-01T12:47:20.319Z,9.78
2022-12-01T12:49:59.735Z,10.07
2022-12-01T12:52:34.282Z,10.13
2022-12-01T12:55:15.289Z,10.31
2022-12-01T12:57:48.570Z,10.46
2022-12-01T13:00:21.473Z,10.47
2022-12-01T13:02:57.915Z,10.57
2022-12-01T13:05:32.899Z,10.81
2022-12-01T13:08:05.443Z,10.86
2022-12-01T13:10:40.707Z,10.79
2022-12-01T13:13:20.357Z,10.65
2022-12-01T13:15:53.403Z,10.41
2022-12-01T13:18:29.119Z,10.25
2022-12-01T13:20:58.977Z,10.07
2022-12-01T13:23:27.516Z,9.90
2022-12-01T13:26:00.562Z,9.80
2022-12-01T13:28:38.183Z,9.72
2022-12-01T13:31:10.170Z,9.65
2022-12-01T13:33:42.540Z,9.63
2022-12-01T13:36:47.079Z,9.54
2022-12-01T13:39:21.384Z,9.51
2022-12-01T13:42:01.601Z,9.46
2022-12-01T13:44:34.547Z,9.46
2022-12-01T13:47:26.728Z,9.31
2022-12-01T13:49:58.323Z,9.10
2022-12-01T13:52:36.813Z,9.15
2022-12-01T13:55:39.125Z,9.10
2022-12-01T13:58:47.549Z,8.96
2022-12-01T14:01:47.695Z,8.92
2022-12-01T14:04:32.680Z,8.80
2022-12-01T14:07:35.885Z,8.69
2022-12-01T14:10:21.041Z,8.63
2022-12-01T14:12:50.397Z,8.59
2022-12-01T14:15:40.331Z,8.63
2022-12-01T14:18:23.539Z,8.50
2022-12-01T14:20:55.472Z,8.42
2022-12-01T14:23:30.650Z,8.42
2022-12-01T14:26:17.343Z,8.37
2022-12-01T14:29:29.028Z,8.22
2022-12-01T14:32:27.250Z,8.16
2022-12-01T14:35:06.808Z,8.17
2022-12-01T14:37:45.360Z,8.09
2022-12-01T14:40:23.557Z,8.09
2022-12-01T14:43:16.668Z,8.03
2022-12-01T14:45:57.041Z,8.04
2022-12-01T14:48:29.107Z,7.97
2022-12-01T14:51:12.346Z,7.97
2022-12-01T14:53:49.838Z,7.95
2022-12-01T14:56:21.048Z,7.91
2022-12-01T14:58:56.147Z,7.87
2022-12-01T15:01:26.878Z,7.83
2022-12-01T15:03:58.895Z,7.96
2022-12-01T15:06:29.503Z,7.89
2022-12-01T15:12:06.815Z,7.69
2022-12-01T15:14:37.012Z,7.72
2022-12-01T15:17:09.183Z,7.71
2022-12-01T15:19:39.785Z,7.72
2022-12-01T15:22:14.293Z,7.80
2022-12-01T15:24:45.665Z,7.69
2022-12-01T15:27:27.525Z,7.67
2022-12-01T15:29:57.300Z,7.59
2022-12-01T15:32:28.132Z,7.56
2022-12-01T15:35:01.595Z,7.52
2022-12-01T15:37:43.501Z,7.48
2022-12-01T15:41:00.151Z,7.43
2022-12-01T15:43:15.541Z,7.39
2022-12-01T15:45:51.834Z,7.34
2022-12-01T15:48:29.133Z,7.31
2022-12-01T15:51:04.596Z,7.28
2022-12-01T15:53:38.608Z,7.23
2022-12-01T15:56:10.690Z,7.20
2022-12-01T15:58:43.854Z,7.19
2022-12-01T16:01:16.240Z,7.16
2022-12-01T16:03:58.415Z,7.14
2022-12-01T16:06:30.532Z,7.12
2022-12-01T16:09:02.692Z,7.20
2022-12-01T16:11:33.127Z,7.16
2022-12-01T16:14:05.115Z,7.12
2022-12-01T16:16:43.701Z,7.14
2022-12-01T16:19:29.864Z,7.12
2022-12-01T16:22:02.740Z,7.13
2022-12-01T16:24:34.267Z,7.13
2022-12-01T16:27:06.460Z,7.09
2022-12-01T16:29:46.465Z,7.17
2022-12-01T16:32:22.062Z,7.05
2022-12-01T16:34:52.497Z,6.96
2022-12-01T16:37:21.620Z,6.91
2022-12-01T16:39:51.913Z,6.94
2022-12-01T16:42:22.593Z,6.92
2022-12-01T16:44:54.425Z,6.90
2022-12-01T16:47:25.777Z,6.88
2022-12-01T16:49:56.784Z,6.88
2022-12-01T16:55:28.443Z,6.83
2022-12-01T16:58:01.676Z,6.79
2022-12-01T17:00:32.018Z,6.79
2022-12-01T17:03:00.316Z,6.78
2022-12-01T17:05:31.444Z,6.79
2022-12-01T17:07:59.841Z,6.76
2022-12-01T17:10:27.842Z,6.76
2022-12-01T17:12:55.968Z,6.75
2022-12-01T17:15:27.446Z,6.72
2022-12-01T17:17:55.602Z,6.70
2022-12-01T17:20:26.079Z,6.70
2022-12-01T17:22:54.777Z,6.64
2022-12-01T17:25:25.242Z,6.64
2022-12-01T17:27:53.312Z,6.64
2022-12-01T17:30:21.886Z,6.63
2022-12-01T17:32:51.756Z,6.64
2022-12-01T17:35:19.763Z,6.64
2022-12-01T17:37:49.203Z,6.69
2022-12-01T17:40:18.096Z,6.64
2022-12-01T17:42:50.428Z,6.64
2022-12-01T17:45:20.650Z,6.62
2022-12-01T17:47:48.661Z,6.55
2022-12-01T17:50:19.952Z,6.54
2022-12-01T17:52:50.479Z,6.54
2022-12-01T17:55:20.486Z,6.53
2022-12-01T17:57:49.285Z,6.53
2022-12-01T18:00:20.203Z,6.53
2022-12-01T18:02:50.523Z,6.51
2022-12-01T18:05:23.024Z,6.54
2022-12-01T18:07:51.685Z,6.53
2022-12-01T18:10:20.400Z,6.51
2022-12-01T18:12:49.212Z,6.51
2022-12-01T18:15:18.421Z,6.51
2022-12-01T18:17:46.728Z,6.52
2022-12-01T18:20:19.882Z,6.53
2022-12-01T18:22:49.473Z,6.51
2022-12-01T18:25:19.910Z,6.51
2022-12-01T18:27:48.526Z,6.49
2022-12-01T18:30:17.696Z,6.52
2022-12-01T18:32:47.911Z,6.51
2022-12-01T18:35:16.356Z,6.54
2022-12-01T18:37:44.610Z,6.54
2022-12-01T18:40:15.309Z,6.53
2022-12-01T18:42:43.344Z,6.50
2022-12-01T18:45:16.611Z,6.48
2022-12-01T18:47:48.745Z,6.49
2022-12-01T18:50:16.919Z,6.51
2022-12-01T18:52:44.994Z,6.50
2022-12-01T18:55:16.934Z,6.47
2022-12-01T18:58:05.541Z,6.48
2022-12-01T19:00:36.348Z,6.51
2022-12-01T19:03:07.526Z,6.47
2022-12-01T19:05:38.517Z,6.40
2022-12-01T19:08:07.061Z,6.37
2022-12-01T19:10:36.919Z,6.38
2022-12-01T19:13:12.815Z,6.38
2022-12-01T19:15:41.047Z,6.40
2022-12-01T19:18:09.681Z,6.42
2022-12-01T19:20:41.536Z,6.42
2022-12-01T19:23:10.341Z,6.38
2022-12-01T19:25:43.270Z,6.41
2022-12-01T19:28:13.840Z,6.39
2022-12-01T19:30:47.944Z,6.35
2022-12-01T19:33:20.016Z,6.37
2022-12-01T19:35:51.041Z,6.38
2022-12-01T19:38:20.645Z,6.35
2022-12-01T19:40:54.758Z,6.33
2022-12-01T19:43:25.655Z,6.31
2022-12-01T19:45:56.681Z,6.33
2022-12-01T19:48:25.454Z,6.39
2022-12-01T19:50:55.973Z,6.34
2022-12-01T19:53:30.489Z,6.33
2022-12-01T19:56:05.446Z,6.39
2022-12-01T19:58:34.250Z,6.41
2022-12-01T20:01:09.201Z,6.35
2022-12-01T20:03:38.016Z,6.39
2022-12-01T20:06:08.725Z,6.43
2022-12-01T20:08:39.429Z,6.41
2022-12-01T20:11:11.425Z,6.37
2022-12-01T20:13:41.271Z,6.35
2022-12-01T20:16:12.157Z,6.33
2022-12-01T20:18:41.914Z,6.30
2022-12-01T20:21:16.251Z,6.30
2022-12-01T20:23:45.909Z,6.32
2022-12-01T20:26:20.617Z,6.29
2022-12-01T20:28:51.469Z,6.28
2022-12-01T20:31:21.936Z,6.28
2022-12-01T20:33:52.378Z,6.27
2022-12-01T20:36:25.136Z,6.25
2022-12-01T20:38:53.359Z,6.26
2022-12-01T20:41:23.366Z,6.26
2022-12-01T20:43:53.642Z,6.24
2022-12-01T20:46:23.689Z,6.23
2022-12-01T20:48:51.842Z,6.23
2022-12-01T20:51:20.454Z,6.21
2022-12-01T20:54:19.791Z,6.16
2022-12-01T20:56:43.894Z,6.21
2022-12-01T20:59:12.640Z,6.20
2022-12-01T21:01:40.566Z,6.21
2022-12-01T21:04:08.686Z,6.17
2022-12-01T21:06:36.772Z,6.14
2022-12-01T21:09:07.427Z,6.09
2022-12-01T21:11:56.866Z,6.06
2022-12-01T21:14:31.276Z,6.03
2022-12-01T21:17:07.278Z,6.02
2022-12-01T21:19:46.946Z,5.98
2022-12-01T21:22:15.565Z,5.96
2022-12-01T21:24:54.927Z,5.91
2022-12-01T21:27:23.023Z,5.92
2022-12-01T21:29:52.653Z,5.94
2022-12-01T21:32:30.551Z,5.93
2022-12-01T21:35:04.963Z,5.90
2022-12-01T21:37:33.303Z,5.90
2022-12-01T21:40:01.749Z,5.87
2022-12-01T21:42:32.834Z,5.87
2022-12-01T21:45:02.570Z,5.86
2022-12-01T21:47:31.611Z,5.87
2022-12-01T21:50:04.438Z,5.83
2022-12-01T21:52:43.693Z,5.80
2022-12-01T21:55:37.220Z,5.78
2022-12-01T21:58:22.463Z,5.75
2022-12-01T22:00:53.291Z,5.74
2022-12-01T22:03:28.476Z,5.71
2022-12-01T22:06:28.400Z,5.68
2022-12-01T22:08:52.753Z,5.65
2022-12-01T22:11:23.262Z,5.62
2022-12-01T22:13:56.792Z,5.62
2022-12-01T22:16:31.251Z,5.60
2022-12-01T22:19:03.033Z,5.60
2022-12-01T22:21:38.109Z,5.55
2022-12-01T22:24:23.309Z,5.55
2022-12-01T22:27:05.039Z,5.53
2022-12-01T22:29:38.020Z,5.51
2022-12-01T22:32:45.651Z,5.52
2022-12-01T22:35:32.442Z,5.51
2022-12-01T22:38:35.110Z,5.52
2022-12-01T22:41:07.475Z,5.51
2022-12-01T22:43:48.867Z,5.51
2022-12-01T22:46:24.143Z,5.52
2022-12-01T22:48:56.008Z,5.53
2022-12-01T22:51:31.275Z,5.53
2022-12-01T22:54:03.360Z,5.57
2022-12-01T22:56:39.363Z,5.59
2022-12-01T22:59:16.049Z,5.59
2022-12-01T23:01:50.378Z,5.61
2022-12-01T23:04:27.478Z,5.65
2022-12-01T23:07:09.422Z,5.61
2022-12-01T23:09:42.713Z,5.62
2022-12-01T23:12:29.972Z,5.55
2022-12-01T23:15:00.652Z,5.56
2022-12-01T23:17:38.854Z,5.62
2022-12-01T23:20:32.808Z,5.65
2022-12-01T23:23:03.363Z,5.68
2022-12-01T23:25:35.877Z,5.66
2022-12-01T23:28:07.769Z,5.60
2022-12-01T23:30:37.746Z,5.60
2022-12-01T23:33:14.876Z,5.59
2022-12-01T23:35:48.320Z,5.57
2022-12-01T23:38:22.391Z,5.57
2022-12-01T23:40:53.543Z,5.60
2022-12-01T23:43:24.726Z,5.60
2022-12-01T23:46:04.655Z,5.61
2022-12-01T23:48:35.898Z,5.61
2022-12-01T23:51:12.919Z,5.60
2022-12-01T23:53:43.103Z,5.61
2022-12-01T23:56:16.244Z,5.62
2022-12-01T23:58:45.940Z,5.60
